Time;durP1;ratioP1;P1;durP2;ratioP2;P2;SDS_P1;SDS_P2;PMS_P1;PMS_P2;Temp;Humidity;BMP_temperature;BMP_pressure;BME280_temperature;BME280_humidity;BME280_pressure;Samples;Min_cycle;Max_cycle;Signal;HPM_P1;HPM_P2
2023/08/03 00:00:37;;;;;;;12.02;5.35;;;15.60;99.90;;;;;;4975586;28;20030;-78
2023/08/03 00:03:04;;;;;;;15.68;7.28;;;15.60;99.90;;;;;;4977664;28;20065;-78
2023/08/03 00:05:30;;;;;;;12.50;6.53;;;15.50;99.90;;;;;;4977308;28;20048;-78
2023/08/03 00:07:55;;;;;;;13.95;6.20;;;15.60;99.90;;;;;;4994122;28;20033;-78
2023/08/03 00:10:22;;;;;;;11.90;6.68;;;15.60;99.90;;;;;;4975636;28;20064;-78
2023/08/03 00:12:49;;;;;;;10.38;5.13;;;15.60;99.90;;;;;;4994777;28;20056;-78
2023/08/03 00:15:15;;;;;;;7.07;5.28;;;15.60;99.90;;;;;;4997634;28;20038;-78
2023/08/03 00:17:41;;;;;;;12.05;5.68;;;15.60;99.90;;;;;;4977125;28;20089;-78
2023/08/03 00:20:07;;;;;;;10.45;5.40;;;15.60;99.90;;;;;;4993042;28;20069;-78
2023/08/03 00:22:34;;;;;;;10.40;5.70;;;15.60;99.90;;;;;;5002210;28;20117;-78
2023/08/03 00:25:00;;;;;;;11.20;6.18;;;15.50;99.90;;;;;;4978533;28;20041;-78
2023/08/03 00:27:26;;;;;;;14.57;7.60;;;15.60;99.90;;;;;;4982827;28;20073;-78
2023/08/03 00:29:52;;;;;;;6.50;3.80;;;15.60;99.90;;;;;;4991956;28;20487;-78
2023/08/03 00:32:18;;;;;;;7.88;4.00;;;15.60;99.90;;;;;;4983000;28;20052;-78
2023/08/03 00:34:44;;;;;;;9.82;5.35;;;15.50;99.90;;;;;;4994258;28;20631;-78
2023/08/03 00:37:10;;;;;;;13.40;6.72;;;15.50;99.90;;;;;;4997101;28;20070;-78
2023/08/03 00:39:36;;;;;;;10.50;6.22;;;15.60;99.90;;;;;;4993846;28;20140;-78
2023/08/03 00:42:02;;;;;;;7.75;4.60;;;15.50;99.90;;;;;;4992303;28;20034;-79
2023/08/03 00:44:28;;;;;;;9.50;4.65;;;15.60;99.90;;;;;;4993755;28;20120;-78
2023/08/03 00:46:53;;;;;;;6.47;4.15;;;15.60;99.90;;;;;;4991990;28;20088;-78
2023/08/03 00:49:19;;;;;;;8.45;5.28;;;15.60;99.90;;;;;;4990891;28;20034;-78
2023/08/03 00:51:45;;;;;;;6.43;4.80;;;15.60;99.90;;;;;;4993556;28;20042;-79
2023/08/03 00:54:11;;;;;;;8.27;4.53;;;15.60;99.90;;;;;;5001484;28;20053;-79
2023/08/03 00:56:37;;;;;;;10.13;5.95;;;15.60;99.90;;;;;;4997322;28;20037;-78
2023/08/03 00:59:04;;;;;;;10.02;4.10;;;15.60;99.90;;;;;;5009836;28;20559;-79
2023/08/03 01:01:30;;;;;;;11.18;6.13;;;15.60;99.90;;;;;;4980776;28;20392;-78
2023/08/03 01:03:56;;;;;;;6.32;4.22;;;15.60;99.90;;;;;;4977174;28;20037;-78
2023/08/03 01:06:22;;;;;;;9.60;5.50;;;15.60;99.90;;;;;;4997408;28;20041;-78
2023/08/03 01:08:48;;;;;;;19.75;8.27;;;15.60;99.90;;;;;;4995389;28;20120;-78
2023/08/03 01:11:13;;;;;;;9.90;5.22;;;15.50;99.90;;;;;;4988782;28;20117;-78
2023/08/03 01:13:39;;;;;;;8.50;4.00;;;15.60;99.90;;;;;;5001534;28;20038;-78
2023/08/03 01:16:09;;;;;;;9.85;5.35;;;15.60;99.90;;;;;;4988611;28;20034;-78
2023/08/03 01:18:36;;;;;;;7.40;5.05;;;15.60;99.90;;;;;;4980227;28;20042;-78
2023/08/03 01:21:04;;;;;;;7.75;4.80;;;15.50;99.90;;;;;;4993858;28;20088;-78
2023/08/03 01:23:30;;;;;;;12.30;7.38;;;15.60;99.90;;;;;;5005278;28;20068;-78
2023/08/03 01:25:55;;;;;;;21.90;9.75;;;15.60;99.90;;;;;;4980570;28;20037;-78
2023/08/03 01:28:21;;;;;;;8.48;5.80;;;15.60;99.90;;;;;;4994970;28;20065;-78
2023/08/03 01:30:48;;;;;;;8.52;5.85;;;15.60;99.90;;;;;;4993354;28;20404;-78
2023/08/03 01:33:13;;;;;;;6.75;4.40;;;15.60;99.90;;;;;;4996869;28;20077;-78
2023/08/03 01:35:39;;;;;;;7.20;4.57;;;15.60;99.90;;;;;;4980849;28;20038;-78
2023/08/03 01:38:04;;;;;;;8.63;6.32;;;15.60;99.90;;;;;;4980711;28;20508;-78
2023/08/03 01:40:30;;;;;;;16.08;8.75;;;15.60;99.90;;;;;;4995978;28;20041;-78
2023/08/03 01:42:56;;;;;;;21.30;9.60;;;15.60;99.90;;;;;;4998983;28;20030;-78
2023/08/03 01:45:21;;;;;;;15.85;8.30;;;15.60;99.90;;;;;;4996588;28;20048;-78
2023/08/03 01:47:47;;;;;;;8.98;6.60;;;15.60;99.90;;;;;;4996374;28;20044;-78
2023/08/03 01:50:13;;;;;;;10.63;7.22;;;15.60;99.90;;;;;;4979288;28;20374;-78
2023/08/03 01:52:38;;;;;;;8.15;7.15;;;15.60;99.90;;;;;;4978408;28;20088;-78
2023/08/03 01:55:04;;;;;;;12.50;8.70;;;15.70;99.90;;;;;;4996255;28;20475;-78
2023/08/03 01:57:30;;;;;;;10.02;7.75;;;15.60;99.90;;;;;;4996157;28;20048;-78
2023/08/03 01:59:55;;;;;;;19.25;9.85;;;15.60;99.90;;;;;;4995823;28;20029;-77
2023/08/03 02:02:21;;;;;;;15.90;9.63;;;15.60;99.90;;;;;;4992405;28;20064;-78
2023/08/03 02:04:46;;;;;;;34.35;13.63;;;15.70;99.90;;;;;;5005340;28;20040;-78
2023/08/03 02:07:17;;;;;;;20.77;10.82;;;15.70;99.90;;;;;;4993808;28;20536;-78
2023/08/03 02:09:43;;;;;;;33.85;13.70;;;15.60;99.90;;;;;;4995833;28;20121;-78
2023/08/03 02:12:09;;;;;;;25.40;12.68;;;15.70;99.90;;;;;;5000599;28;20121;-78
2023/08/03 02:14:34;;;;;;;31.10;15.48;;;15.70;99.90;;;;;;4979844;28;20444;-78
2023/08/03 02:17:00;;;;;;;21.65;14.30;;;15.70;99.90;;;;;;4994178;28;20026;-78
2023/08/03 02:19:26;;;;;;;33.65;16.13;;;15.70;99.90;;;;;;4983380;28;20088;-78
2023/08/03 02:21:52;;;;;;;25.88;15.75;;;15.70;99.90;;;;;;4980090;28;20092;-78
2023/08/03 02:24:17;;;;;;;47.88;18.58;;;15.80;99.90;;;;;;4995676;28;20045;-78
2023/08/03 02:26:43;;;;;;;43.70;19.48;;;15.70;99.90;;;;;;4995791;28;20038;-78
2023/08/03 02:29:08;;;;;;;42.15;19.67;;;15.70;99.90;;;;;;4992176;28;20444;-78
2023/08/03 02:31:34;;;;;;;52.75;22.00;;;15.80;99.90;;;;;;4988559;28;20230;-78
2023/08/03 02:34:00;;;;;;;47.20;21.33;;;15.80;99.90;;;;;;4979425;28;20034;-77
2023/08/03 02:36:25;;;;;;;46.88;21.45;;;15.90;99.90;;;;;;4978754;28;20130;-78
2023/08/03 02:38:51;;;;;;;87.47;26.65;;;15.80;99.90;;;;;;4987203;28;20034;-79
2023/08/03 02:41:17;;;;;;;47.67;20.13;;;15.80;99.90;;;;;;4991296;28;20044;-78
2023/08/03 02:43:43;;;;;;;49.53;21.73;;;15.90;99.90;;;;;;4978752;28;20038;-78
2023/08/03 02:46:08;;;;;;;32.97;16.92;;;15.80;99.90;;;;;;4992319;28;20550;-77
2023/08/03 02:48:34;;;;;;;42.50;18.95;;;15.90;99.90;;;;;;4978916;28;20523;-78
2023/08/03 02:50:59;;;;;;;62.65;21.17;;;15.80;99.90;;;;;;5003373;28;20030;-78
2023/08/03 02:53:25;;;;;;;89.03;24.77;;;15.80;99.90;;;;;;4976209;28;20034;-78
2023/08/03 02:55:51;;;;;;;34.60;17.40;;;15.90;99.90;;;;;;4993808;28;20038;-78
2023/08/03 02:58:17;;;;;;;43.35;19.55;;;15.90;99.90;;;;;;4994159;28;20120;-78
2023/08/03 03:00:43;;;;;;;45.10;17.90;;;15.90;99.90;;;;;;4975792;28;20070;-78
2023/08/03 03:03:08;;;;;;;43.92;17.52;;;15.90;99.90;;;;;;4990261;28;20551;-77
2023/08/03 03:05:34;;;;;;;47.30;17.55;;;15.90;99.90;;;;;;4976504;28;20133;-77
2023/08/03 03:08:00;;;;;;;49.65;17.70;;;15.90;99.90;;;;;;4995020;28;20125;-78
2023/08/03 03:10:25;;;;;;;42.20;15.45;;;15.90;99.90;;;;;;4978672;28;20048;-77
2023/08/03 03:12:51;;;;;;;35.47;12.68;;;15.90;99.90;;;;;;4978844;28;20037;-78
2023/08/03 03:15:16;;;;;;;48.03;15.60;;;15.90;99.90;;;;;;4976761;28;20034;-78
2023/08/03 03:17:42;;;;;;;52.28;15.90;;;15.90;99.90;;;;;;4994831;28;20121;-78
2023/08/03 03:20:10;;;;;;;48.78;16.60;;;15.90;99.90;;;;;;4993839;28;20038;-78
2023/08/03 03:22:35;;;;;;;50.17;15.57;;;15.90;99.90;;;;;;4978670;28;20042;-78
2023/08/03 03:25:02;;;;;;;37.28;13.50;;;15.90;99.90;;;;;;4993273;28;20385;-78
2023/08/03 03:27:28;;;;;;;44.55;13.50;;;15.90;99.90;;;;;;5010419;28;20504;-78
2023/08/03 03:29:54;;;;;;;45.13;13.23;;;15.80;99.90;;;;;;4994744;28;20044;-78
2023/08/03 03:32:19;;;;;;;40.05;14.55;;;15.80;99.90;;;;;;4978030;28;20116;-78
2023/08/03 03:34:45;;;;;;;36.63;12.20;;;15.80;99.90;;;;;;4994703;28;20050;-78
2023/08/03 03:37:10;;;;;;;53.38;14.55;;;15.80;99.90;;;;;;4976472;28;20034;-78
2023/08/03 03:39:36;;;;;;;42.85;12.00;;;15.70;99.90;;;;;;4994756;28;20458;-78
2023/08/03 03:42:02;;;;;;;25.30;9.98;;;15.70;99.90;;;;;;4994817;28;20049;-78
2023/08/03 03:44:27;;;;;;;34.35;11.13;;;15.70;99.90;;;;;;4993950;28;20125;-78
2023/08/03 03:46:53;;;;;;;49.22;12.90;;;15.70;99.90;;;;;;4992169;28;20451;-78
2023/08/03 03:49:18;;;;;;;28.73;10.18;;;15.70;99.90;;;;;;4994718;28;20050;-78
2023/08/03 03:51:44;;;;;;;34.30;11.00;;;15.60;99.90;;;;;;4976924;28;20092;-78
2023/08/03 03:54:10;;;;;;;38.92;12.20;;;15.60;99.90;;;;;;4994462;28;20483;-78
2023/08/03 03:56:35;;;;;;;24.20;9.88;;;15.60;99.90;;;;;;4977727;28;20061;-78
2023/08/03 03:59:01;;;;;;;29.92;10.15;;;15.60;99.90;;;;;;4977484;28;20045;-78
2023/08/03 04:01:27;;;;;;;23.52;9.75;;;15.50;99.90;;;;;;5000419;28;20108;-78
2023/08/03 04:03:52;;;;;;;35.47;11.13;;;15.60;99.90;;;;;;4994490;28;20474;-77
2023/08/03 04:06:18;;;;;;;42.03;12.30;;;15.50;99.90;;;;;;4993399;28;20461;-78
2023/08/03 04:08:43;;;;;;;41.47;13.00;;;15.50;99.90;;;;;;4994345;28;20042;-78
2023/08/03 04:11:09;;;;;;;41.28;13.27;;;15.50;99.90;;;;;;4994186;28;20040;-78
2023/08/03 04:13:35;;;;;;;24.55;9.73;;;15.40;99.90;;;;;;4994282;28;20053;-78
2023/08/03 04:16:00;;;;;;;42.45;14.02;;;15.40;99.90;;;;;;4991744;28;20108;-78
2023/08/03 04:18:27;;;;;;;41.80;12.93;;;15.40;99.90;;;;;;4993580;28;20189;-78
2023/08/03 04:20:53;;;;;;;29.13;11.85;;;15.30;99.90;;;;;;4991144;28;20034;-78
2023/08/03 04:23:19;;;;;;;34.42;13.77;;;15.30;99.90;;;;;;5000867;28;20057;-78
2023/08/03 04:25:45;;;;;;;38.45;15.65;;;15.30;99.90;;;;;;5003189;28;20042;-78
2023/08/03 04:28:10;;;;;;;34.65;16.17;;;15.30;99.90;;;;;;4997468;28;20180;-78
2023/08/03 04:30:36;;;;;;;40.55;18.17;;;15.30;99.90;;;;;;4988767;28;20041;-78
2023/08/03 04:33:02;;;;;;;46.90;19.30;;;15.40;99.90;;;;;;4998023;28;20079;-78
2023/08/03 04:35:28;;;;;;;34.15;17.73;;;15.40;99.90;;;;;;4997877;28;20069;-78
2023/08/03 04:37:53;;;;;;;59.80;22.27;;;15.40;99.90;;;;;;4979424;28;20041;-78
2023/08/03 04:40:19;;;;;;;68.28;23.60;;;15.50;99.90;;;;;;5001074;28;20044;-78
2023/08/03 04:42:44;;;;;;;40.80;20.58;;;15.60;99.90;;;;;;4997282;28;20088;-78
2023/08/03 04:45:10;;;;;;;46.42;21.58;;;15.60;99.90;;;;;;4981651;28;20050;-78
2023/08/03 04:47:35;;;;;;;61.22;22.25;;;15.70;99.90;;;;;;4997365;28;20500;-78
2023/08/03 04:50:01;;;;;;;64.55;24.63;;;15.70;99.90;;;;;;5004490;28;20042;-78
2023/08/03 04:52:27;;;;;;;95.28;28.65;;;15.70;99.90;;;;;;5003710;28;20041;-78
2023/08/03 04:54:52;;;;;;;58.40;24.60;;;15.80;99.90;;;;;;4995969;28;20124;-78
2023/08/03 04:57:18;;;;;;;65.32;26.50;;;15.80;99.90;;;;;;4979755;28;20038;-78
2023/08/03 04:59:43;;;;;;;66.65;27.08;;;15.90;99.90;;;;;;4997704;28;20558;-78
2023/08/03 05:02:09;;;;;;;92.57;29.55;;;16.00;99.90;;;;;;5012853;28;20049;-78
2023/08/03 05:04:35;;;;;;;74.72;28.42;;;16.00;99.90;;;;;;4997487;28;20046;-78
2023/08/03 05:07:00;;;;;;;78.93;29.95;;;16.10;99.90;;;;;;5002214;28;20033;-78
2023/08/03 05:09:26;;;;;;;78.05;30.13;;;16.10;99.90;;;;;;4997590;28;20034;-78
2023/08/03 05:11:51;;;;;;;58.33;27.35;;;16.20;99.90;;;;;;4997241;28;20052;-78
2023/08/03 05:14:17;;;;;;;50.90;24.20;;;16.30;99.90;;;;;;4993149;28;20046;-78
2023/08/03 05:16:42;;;;;;;50.88;27.27;;;16.30;99.90;;;;;;5012610;28;20037;-78
2023/08/03 05:19:08;;;;;;;75.28;29.45;;;16.30;99.90;;;;;;4985641;28;20136;-78
2023/08/03 05:21:34;;;;;;;77.03;30.38;;;16.30;99.90;;;;;;4996134;28;20030;-78
2023/08/03 05:23:59;;;;;;;55.20;28.00;;;16.30;99.90;;;;;;4997251;28;20045;-78
2023/08/03 05:26:26;;;;;;;45.05;25.70;;;16.30;99.90;;;;;;5002145;28;20492;-78
2023/08/03 05:28:52;;;;;;;31.73;21.40;;;16.70;99.90;;;;;;4979633;28;20041;-78
2023/08/03 05:31:17;;;;;;;36.42;21.08;;;16.90;99.90;;;;;;5001940;28;20435;-78
2023/08/03 05:33:43;;;;;;;49.00;22.65;;;17.00;99.90;;;;;;5012316;28;20496;-78
2023/08/03 05:36:09;;;;;;;54.92;24.38;;;17.10;99.90;;;;;;4983092;28;20484;-78
2023/08/03 05:38:34;;;;;;;36.95;21.08;;;17.10;99.90;;;;;;4998040;28;20057;-78
2023/08/03 05:41:00;;;;;;;43.25;22.48;;;17.00;99.90;;;;;;4995001;28;20038;-78
2023/08/03 05:43:27;;;;;;;28.30;19.42;;;16.90;99.90;;;;;;5005101;28;20046;-78
2023/08/03 05:46:02;;;;;;;68.25;25.60;;;16.90;99.90;;;;;;4993554;28;20117;-78
2023/08/03 05:48:31;;;;;;;35.25;20.50;;;17.00;99.90;;;;;;4986600;28;20037;-78
2023/08/03 05:50:57;;;;;;;79.93;29.10;;;17.00;99.90;;;;;;4998010;28;20064;-78
2023/08/03 05:53:24;;;;;;;45.58;23.38;;;16.90;99.90;;;;;;4998599;28;20046;-78
2023/08/03 05:55:49;;;;;;;42.10;24.17;;;16.90;99.90;;;;;;5001662;28;20030;-78
2023/08/03 05:58:17;;;;;;;87.25;31.55;;;17.00;99.90;;;;;;4999536;28;20034;-78
2023/08/03 06:00:47;;;;;;;26.45;18.92;;;17.00;99.90;;;;;;4988075;28;20042;-78
2023/08/03 06:03:14;;;;;;;47.90;24.73;;;17.10;99.90;;;;;;5011324;28;20124;-78
2023/08/03 06:05:48;;;;;;;48.17;25.77;;;17.10;99.90;;;;;;4985971;28;20041;-78
2023/08/03 06:08:24;;;;;;;40.45;23.50;;;17.20;99.90;;;;;;4998958;28;20053;-79
2023/08/03 06:10:55;;;;;;;63.15;31.15;;;17.40;99.90;;;;;;4990522;28;20515;-78
2023/08/03 06:13:35;;;;;;;39.40;24.30;;;17.50;99.90;;;;;;4993309;28;20039;-78
2023/08/03 06:16:08;;;;;;;31.40;20.35;;;17.60;99.90;;;;;;4997982;28;20325;-79
2023/08/03 06:18:49;;;;;;;50.10;24.73;;;17.60;99.90;;;;;;4997610;28;20042;-78
2023/08/03 06:21:16;;;;;;;46.97;22.50;;;17.60;99.90;;;;;;4996983;28;20477;-78
2023/08/03 06:23:47;;;;;;;49.45;25.60;;;17.50;99.90;;;;;;4994808;28;20034;-79
2023/08/03 06:26:16;;;;;;;52.67;25.67;;;17.50;99.90;;;;;;4977340;28;20586;-78
2023/08/03 06:28:44;;;;;;;35.25;22.05;;;17.50;99.90;;;;;;5003975;28;20042;-78
2023/08/03 06:31:15;;;;;;;31.80;21.00;;;17.50;99.90;;;;;;4994340;28;20045;-77
2023/08/03 06:33:43;;;;;;;33.17;21.77;;;17.60;99.90;;;;;;4994387;28;20038;-77
2023/08/03 06:36:11;;;;;;;41.42;23.98;;;17.50;99.90;;;;;;4992234;28;20044;-78
2023/08/03 06:38:37;;;;;;;55.95;26.77;;;17.50;99.90;;;;;;4976124;28;20081;-77
2023/08/03 06:41:03;;;;;;;31.20;20.08;;;17.60;99.90;;;;;;4994187;28;20072;-77
2023/08/03 06:43:30;;;;;;;29.63;20.60;;;17.50;99.90;;;;;;4992872;28;20044;-77
2023/08/03 06:45:56;;;;;;;25.17;21.10;;;17.60;99.90;;;;;;4994654;28;20034;-78
2023/08/03 06:48:22;;;;;;;30.20;20.83;;;17.80;99.90;;;;;;4995548;28;20200;-76
2023/08/03 06:50:48;;;;;;;30.98;22.63;;;17.90;99.90;;;;;;4992844;28;20049;-78
2023/08/03 06:53:14;;;;;;;32.47;22.85;;;18.00;99.90;;;;;;4991092;28;20404;-77
2023/08/03 06:55:40;;;;;;;31.25;20.30;;;18.00;99.90;;;;;;4993681;28;20164;-76
2023/08/03 06:58:06;;;;;;;25.25;17.13;;;18.10;99.90;;;;;;4978259;28;20459;-77
2023/08/03 07:00:31;;;;;;;25.45;16.75;;;18.10;99.90;;;;;;4993755;28;20045;-77
2023/08/03 07:02:57;;;;;;;26.05;18.92;;;18.10;99.90;;;;;;4991252;28;20112;-77
2023/08/03 07:05:23;;;;;;;24.80;19.20;;;18.10;99.90;;;;;;4995359;28;20477;-76
2023/08/03 07:07:49;;;;;;;26.55;18.13;;;18.20;99.90;;;;;;4999462;28;20040;-77
2023/08/03 07:10:15;;;;;;;23.73;16.63;;;18.20;99.90;;;;;;5007505;28;20048;-78
2023/08/03 07:12:42;;;;;;;18.88;15.77;;;18.40;99.90;;;;;;4995181;28;20042;-77
2023/08/03 07:15:08;;;;;;;16.73;13.85;;;18.50;99.90;;;;;;5004080;28;20144;-78
2023/08/03 07:17:34;;;;;;;16.45;12.18;;;18.60;99.90;;;;;;4994038;28;20125;-77
2023/08/03 07:19:59;;;;;;;19.00;14.05;;;18.70;99.90;;;;;;4994086;28;20121;-78
2023/08/03 07:22:25;;;;;;;19.38;13.18;;;18.60;99.90;;;;;;4993427;28;20445;-78
2023/08/03 07:24:51;;;;;;;13.52;9.02;;;18.60;99.90;;;;;;4994726;28;20084;-77
2023/08/03 07:27:16;;;;;;;12.00;8.38;;;18.70;99.90;;;;;;4998102;28;20042;-77
2023/08/03 07:29:43;;;;;;;15.93;10.82;;;18.70;99.90;;;;;;4991864;28;20038;-77
2023/08/03 07:32:11;;;;;;;17.30;11.75;;;18.80;99.90;;;;;;4994035;28;20610;-76
2023/08/03 07:34:36;;;;;;;8.55;5.93;;;18.80;99.90;;;;;;4997470;28;20046;-77
2023/08/03 07:37:02;;;;;;;12.27;7.22;;;19.00;99.90;;;;;;4992532;28;20091;-77
2023/08/03 07:39:28;;;;;;;11.93;8.15;;;19.00;99.90;;;;;;4998945;28;20509;-77
2023/08/03 07:41:54;;;;;;;13.63;6.88;;;19.10;99.90;;;;;;4994450;28;20038;-77
2023/08/03 07:44:19;;;;;;;10.63;5.78;;;19.30;99.90;;;;;;4977943;28;20037;-77
2023/08/03 07:46:46;;;;;;;12.25;5.18;;;19.40;99.90;;;;;;4994462;28;20403;-77
2023/08/03 07:49:13;;;;;;;11.95;5.82;;;19.40;99.90;;;;;;4994486;28;20037;-77
2023/08/03 07:51:38;;;;;;;9.00;4.15;;;19.30;99.90;;;;;;4989354;28;20060;-77
2023/08/03 07:54:04;;;;;;;8.13;4.97;;;19.20;99.90;;;;;;4993246;28;20038;-77
2023/08/03 07:56:30;;;;;;;9.57;4.07;;;19.10;99.90;;;;;;4991375;28;20038;-77
2023/08/03 07:58:56;;;;;;;8.80;4.25;;;19.10;99.90;;;;;;4993439;28;20160;-77
2023/08/03 08:01:22;;;;;;;9.80;4.72;;;19.10;99.90;;;;;;4997182;28;20026;-76
2023/08/03 08:03:49;;;;;;;7.15;3.05;;;19.30;99.90;;;;;;4978153;28;20085;-76
2023/08/03 08:06:16;;;;;;;8.45;3.60;;;19.40;99.90;;;;;;4993259;28;20063;-76
2023/08/03 08:08:42;;;;;;;9.60;3.80;;;19.30;99.90;;;;;;4993122;28;20040;-76
2023/08/03 08:11:08;;;;;;;6.82;3.05;;;19.20;99.90;;;;;;5001889;28;20396;-78
2023/08/03 08:13:34;;;;;;;6.65;2.80;;;19.10;99.90;;;;;;4992278;28;20041;-77
2023/08/03 08:16:04;;;;;;;5.80;2.83;;;19.10;99.90;;;;;;5009244;28;20030;-76
2023/08/03 08:18:31;;;;;;;6.63;2.30;;;19.30;99.90;;;;;;4993624;28;20037;-78
2023/08/03 08:21:00;;;;;;;5.35;2.47;;;19.40;99.90;;;;;;4995270;28;20396;-78
2023/08/03 08:23:25;;;;;;;4.05;2.05;;;19.60;99.90;;;;;;4978477;28;20041;-78
2023/08/03 08:25:51;;;;;;;6.32;2.58;;;20.30;99.90;;;;;;4991617;28;20392;-78
2023/08/03 08:28:17;;;;;;;4.75;1.77;;;21.10;99.90;;;;;;4990370;28;20038;-79
2023/08/03 08:30:44;;;;;;;5.88;2.10;;;22.00;99.90;;;;;;4991916;28;20090;-78
2023/08/03 08:33:10;;;;;;;4.07;1.30;;;22.40;99.90;;;;;;4994358;28;20037;-79
2023/08/03 08:35:36;;;;;;;7.43;1.50;;;22.40;99.90;;;;;;5000982;28;20041;-77
2023/08/03 08:38:04;;;;;;;6.18;1.88;;;22.00;99.90;;;;;;4994259;28;20034;-78
2023/08/03 08:40:30;;;;;;;5.57;1.60;;;22.10;99.90;;;;;;4994326;28;20041;-79
2023/08/03 08:42:56;;;;;;;4.75;1.60;;;22.50;99.90;;;;;;4995139;28;20025;-79
2023/08/03 08:45:22;;;;;;;5.32;1.83;;;23.20;99.90;;;;;;5003048;28;20037;-79
2023/08/03 08:47:48;;;;;;;5.20;1.50;;;23.90;99.90;;;;;;4994297;28;20038;-77
2023/08/03 08:50:14;;;;;;;3.72;0.95;;;24.40;99.90;;;;;;4993928;28;20547;-77
2023/08/03 08:52:44;;;;;;;4.80;1.02;;;24.30;99.90;;;;;;5001805;28;20564;-77
2023/08/03 08:55:33;;;;;;;3.30;1.25;;;23.70;99.90;;;;;;5002644;28;20049;-77
2023/08/03 08:57:59;;;;;;;6.30;1.50;;;23.10;99.90;;;;;;4987200;28;20403;-77
2023/08/03 09:00:26;;;;;;;6.72;1.73;;;22.90;99.90;;;;;;4974227;28;20125;-77
2023/08/03 09:03:01;;;;;;;3.65;1.30;;;23.30;99.90;;;;;;5001010;28;20042;-77
2023/08/03 09:05:28;;;;;;;6.32;1.23;;;23.90;99.90;;;;;;4976615;28;20034;-77
2023/08/03 09:08:05;;;;;;;5.65;1.58;;;24.40;99.90;;;;;;5003685;28;20052;-77
2023/08/03 09:10:45;;;;;;;5.18;1.10;;;24.80;99.90;;;;;;5007821;28;20382;-77
2023/08/03 09:13:37;;;;;;;4.68;1.00;;;24.60;99.90;;;;;;4996354;28;20511;-77
2023/08/03 09:16:03;;;;;;;2.80;0.90;;;24.70;99.90;;;;;;4993447;28;20034;-77
2023/08/03 09:18:31;;;;;;;3.58;0.95;;;25.00;99.90;;;;;;5005950;28;20042;-78
2023/08/03 09:21:16;;;;;;;4.97;1.08;;;25.40;99.90;;;;;;4998080;28;20033;-78
2023/08/03 09:23:42;;;;;;;3.30;1.13;;;25.70;99.90;;;;;;4999026;28;20053;-78
2023/08/03 09:26:09;;;;;;;5.03;1.20;;;25.80;99.90;;;;;;5012341;28;20058;-78
2023/08/03 09:28:40;;;;;;;6.32;1.10;;;26.10;99.90;;;;;;4998959;28;20061;-78
2023/08/03 09:31:07;;;;;;;5.47;1.17;;;25.90;99.90;;;;;;4998031;28;20038;-77
2023/08/03 09:33:33;;;;;;;4.32;0.95;;;25.30;99.90;;;;;;5005511;28;20041;-77
2023/08/03 09:36:10;;;;;;;6.05;1.17;;;24.90;99.90;;;;;;4997558;28;20488;-78
2023/08/03 09:38:37;;;;;;;3.72;1.05;;;24.70;99.90;;;;;;4990893;28;20030;-78
2023/08/03 09:41:02;;;;;;;5.03;1.20;;;24.90;99.90;;;;;;4997308;28;20033;-77
2023/08/03 09:43:28;;;;;;;3.70;1.17;;;25.30;99.90;;;;;;4997312;28;20036;-78
2023/08/03 09:45:56;;;;;;;5.55;1.00;;;25.70;99.90;;;;;;4996453;28;20092;-78
2023/08/03 09:48:22;;;;;;;4.85;1.02;;;26.10;99.90;;;;;;5008138;28;20117;-78
2023/08/03 09:50:56;;;;;;;3.80;0.90;;;26.40;99.90;;;;;;4998907;28;20034;-78
2023/08/03 09:53:35;;;;;;;3.90;0.88;;;26.70;99.90;;;;;;4999006;28;20042;-78
2023/08/03 09:56:01;;;;;;;3.08;1.00;;;26.40;99.90;;;;;;4998357;28;20046;-78
2023/08/03 09:58:50;;;;;;;3.88;1.00;;;25.90;99.90;;;;;;4995904;28;20034;-78
2023/08/03 10:01:21;;;;;;;4.22;1.80;;;25.50;99.90;;;;;;5001488;28;20492;-78
2023/08/03 10:03:52;;;;;;;4.03;1.42;;;25.30;99.90;;;;;;4997785;28;20475;-78
2023/08/03 10:06:19;;;;;;;4.72;1.30;;;25.30;99.90;;;;;;5000946;28;20401;-78
2023/08/03 10:08:50;;;;;;;4.45;1.10;;;25.00;99.90;;;;;;4996995;28;20088;-78
2023/08/03 10:11:17;;;;;;;4.57;1.13;;;24.70;99.90;;;;;;4997928;28;20049;-78
2023/08/03 10:13:47;;;;;;;3.60;1.30;;;24.70;99.90;;;;;;4995021;28;20084;-77
2023/08/03 10:16:15;;;;;;;5.55;1.20;;;25.10;99.90;;;;;;5013994;28;20049;-78
2023/08/03 10:18:41;;;;;;;4.53;1.20;;;25.50;99.90;;;;;;4997453;28;20187;-77
2023/08/03 10:21:08;;;;;;;5.35;1.30;;;25.70;99.90;;;;;;4996218;28;20041;-78
2023/08/03 10:23:38;;;;;;;6.65;1.55;;;25.90;99.90;;;;;;4996108;28;20392;-77
2023/08/03 10:26:05;;;;;;;5.07;1.60;;;26.10;99.90;;;;;;4996188;28;20064;-78
2023/08/03 10:28:40;;;;;;;5.13;1.40;;;26.40;99.90;;;;;;4998873;28;20052;-78
2023/08/03 10:31:19;;;;;;;5.85;1.65;;;26.70;99.90;;;;;;4981565;28;20042;-77
2023/08/03 10:33:49;;;;;;;5.60;1.42;;;26.70;99.90;;;;;;4978520;28;20727;-81
2023/08/03 10:36:35;;;;;;;4.70;1.20;;;26.50;99.90;;;;;;4979050;28;20586;-80
2023/08/03 10:39:04;;;;;;;4.53;1.30;;;26.00;99.90;;;;;;4980354;28;20042;-77
2023/08/03 10:41:37;;;;;;;5.57;1.40;;;25.60;99.90;;;;;;4996659;28;20045;-76
2023/08/03 10:44:05;;;;;;;4.60;1.60;;;25.30;99.90;;;;;;4991604;28;20049;-77
2023/08/03 10:46:39;;;;;;;5.47;1.40;;;25.00;99.90;;;;;;4997547;28;20073;-78
2023/08/03 10:49:21;;;;;;;3.65;1.27;;;24.60;99.90;;;;;;4991924;28;20063;-77
2023/08/03 10:51:47;;;;;;;4.35;1.58;;;24.00;99.90;;;;;;4978033;28;20053;-77
2023/08/03 10:54:14;;;;;;;6.72;1.40;;;23.40;99.90;;;;;;4971486;28;20037;-79
2023/08/03 10:56:40;;;;;;;5.25;1.40;;;23.10;99.90;;;;;;4993644;28;20037;-77
2023/08/03 10:59:05;;;;;;;5.30;1.20;;;23.10;99.90;;;;;;4993611;28;20046;-77
2023/08/03 11:01:31;;;;;;;2.83;1.00;;;23.40;99.90;;;;;;4994828;28;20042;-77
2023/08/03 11:04:00;;;;;;;5.18;1.30;;;23.70;99.90;;;;;;5007641;28;20038;-77
2023/08/03 11:06:28;;;;;;;3.85;0.90;;;24.30;99.90;;;;;;4990754;28;20049;-78
2023/08/03 11:08:55;;;;;;;3.95;1.10;;;24.50;99.90;;;;;;4982102;28;20087;-78
2023/08/03 11:11:24;;;;;;;4.63;1.13;;;24.30;99.90;;;;;;4996108;28;20427;-79
2023/08/03 11:13:49;;;;;;;5.07;1.23;;;23.90;99.90;;;;;;4994158;28;20048;-78
2023/08/03 11:16:16;;;;;;;5.00;1.17;;;23.50;99.90;;;;;;4991072;28;20029;-77
2023/08/03 11:18:48;;;;;;;3.95;1.02;;;23.10;99.90;;;;;;4993622;28;20070;-77
2023/08/03 11:21:14;;;;;;;4.68;1.30;;;22.80;99.90;;;;;;4992183;28;20037;-77
2023/08/03 11:23:40;;;;;;;6.75;2.10;;;22.70;99.90;;;;;;4992612;28;20440;-77
2023/08/03 11:26:09;;;;;;;5.75;1.77;;;23.10;99.90;;;;;;4994446;28;20033;-77
2023/08/03 11:28:44;;;;;;;5.97;1.80;;;23.70;99.90;;;;;;4994025;28;20067;-78
2023/08/03 11:31:21;;;;;;;6.35;1.60;;;24.20;99.90;;;;;;4999567;28;20040;-77
2023/08/03 11:33:53;;;;;;;5.35;1.70;;;24.50;99.90;;;;;;4994756;28;20034;-77
2023/08/03 11:36:23;;;;;;;;;;;24.70;99.90;;;;;;4994180;28;20492;-77
2023/08/03 11:38:51;;;;;;;5.53;1.85;;;24.70;99.90;;;;;;4991165;28;20008;-78
2023/08/03 11:41:22;;;;;;;7.45;1.88;;;24.40;99.90;;;;;;4978484;28;20078;-78
2023/08/03 11:43:48;;;;;;;5.43;1.83;;;24.00;99.90;;;;;;4994972;28;20400;-78
2023/08/03 11:46:14;;;;;;;7.32;2.45;;;23.70;99.90;;;;;;4994526;28;20042;-78
2023/08/03 11:48:46;;;;;;;10.63;2.10;;;23.50;99.90;;;;;;4996016;28;20045;-79
2023/08/03 11:51:11;;;;;;;5.70;1.70;;;23.40;99.90;;;;;;4991365;28;20125;-77
2023/08/03 11:53:40;;;;;;;8.88;2.13;;;23.40;99.90;;;;;;4994512;28;20127;-78
2023/08/03 11:56:07;;;;;;;7.90;2.20;;;23.40;99.90;;;;;;4992091;28;20049;-78
2023/08/03 11:58:34;;;;;;;7.55;2.22;;;23.30;99.90;;;;;;4994669;28;20046;-78
2023/08/03 12:01:03;;;;;;;5.82;1.67;;;23.10;99.90;;;;;;4978595;28;20034;-76
2023/08/03 12:03:38;;;;;;;8.15;2.03;;;22.80;99.90;;;;;;4991578;28;20081;-77
2023/08/03 12:06:09;;;;;;;6.55;1.80;;;22.60;99.90;;;;;;4987559;28;20041;-77
2023/08/03 12:08:45;;;;;;;7.82;2.22;;;22.50;99.90;;;;;;4992403;28;20092;-77
2023/08/03 12:11:14;;;;;;;8.20;2.10;;;22.50;99.90;;;;;;4993607;28;20052;-77
2023/08/03 12:13:40;;;;;;;7.38;1.90;;;22.50;99.90;;;;;;4994447;28;20116;-77
2023/08/03 12:16:05;;;;;;;6.55;1.90;;;22.60;99.90;;;;;;4991773;28;20875;-77
2023/08/03 12:18:31;;;;;;;7.13;1.98;;;23.00;99.90;;;;;;4992968;28;20037;-78
2023/08/03 12:20:57;;;;;;;7.10;1.90;;;23.20;99.90;;;;;;4977803;28;20389;-77
2023/08/03 12:23:22;;;;;;;7.35;1.80;;;23.00;99.90;;;;;;5007799;28;20415;-77
2023/08/03 12:25:48;;;;;;;5.75;1.73;;;22.80;99.90;;;;;;5010325;28;20045;-77
2023/08/03 12:28:14;;;;;;;5.95;1.50;;;22.70;99.90;;;;;;5010459;28;20125;-77
2023/08/03 12:30:40;;;;;;;5.60;1.70;;;22.80;99.90;;;;;;5010482;28;20038;-77
2023/08/03 12:33:07;;;;;;;6.40;1.65;;;22.70;99.90;;;;;;5007079;28;20046;-77
2023/08/03 12:35:33;;;;;;;5.78;1.65;;;22.50;99.90;;;;;;4977545;28;20041;-77
2023/08/03 12:37:59;;;;;;;4.80;1.73;;;22.30;99.90;;;;;;4981188;28;20397;-77